Time;durP1;ratioP1;P1;durP2;ratioP2;P2;SDS_P1;SDS_P2;PMS_P1;PMS_P2;Temp;Humidity;BMP_temperature;BMP_pressure;BME280_temperature;BME280_humidity;BME280_pressure;Samples;Min_cycle;Max_cycle;Signal;HPM_P1;HPM_P2
2023/06/17 00:01:19;;;;;;;6.07;4.40;;;17.70;63.00;;;;;;5067794;28;20056;-67
2023/06/17 00:03:45;;;;;;;6.40;4.80;;;17.60;63.20;;;;;;5069014;28;20163;-67
2023/06/17 00:06:12;;;;;;;6.60;5.15;;;17.60;63.40;;;;;;5066797;28;20053;-65
2023/06/17 00:08:39;;;;;;;6.95;4.63;;;17.60;63.40;;;;;;5065778;28;20048;-67
2023/06/17 00:11:06;;;;;;;6.63;4.88;;;17.60;63.50;;;;;;5068233;28;20048;-67
2023/06/17 00:13:33;;;;;;;6.75;4.93;;;17.60;63.60;;;;;;5069942;28;20427;-67
2023/06/17 00:16:00;;;;;;;7.93;5.32;;;17.50;63.60;;;;;;5070308;28;20067;-66
2023/06/17 00:18:32;;;;;;;7.38;5.00;;;17.50;63.50;;;;;;5068365;28;20048;-67
2023/06/17 00:20:59;;;;;;;8.00;4.78;;;17.50;63.50;;;;;;5067872;28;20052;-66
2023/06/17 00:23:27;;;;;;;7.60;5.30;;;17.40;63.50;;;;;;5068643;28;20074;-66
2023/06/17 00:25:54;;;;;;;7.20;5.28;;;17.30;63.70;;;;;;5068371;28;20052;-66
2023/06/17 00:28:21;;;;;;;7.10;5.07;;;17.20;63.90;;;;;;5058458;28;20111;-66
2023/06/17 00:30:48;;;;;;;7.03;4.68;;;17.20;64.00;;;;;;5068667;28;20139;-65
2023/06/17 00:33:16;;;;;;;8.10;4.93;;;17.10;64.20;;;;;;5071081;28;20048;-66
2023/06/17 00:35:44;;;;;;;7.05;4.80;;;17.20;64.20;;;;;;5070988;28;20052;-65
2023/06/17 00:38:11;;;;;;;5.93;4.72;;;17.20;64.30;;;;;;5065700;28;20064;-64
2023/06/17 00:40:38;;;;;;;6.10;4.88;;;17.10;64.40;;;;;;5069288;28;20134;-66
2023/06/17 00:43:05;;;;;;;7.15;4.88;;;17.10;64.60;;;;;;5067973;28;20044;-66
2023/06/17 00:45:38;;;;;;;7.63;5.53;;;17.00;64.80;;;;;;5070984;28;20045;-65
2023/06/17 00:48:07;;;;;;;6.30;4.68;;;17.00;64.80;;;;;;5067507;28;20099;-65
2023/06/17 00:50:36;;;;;;;6.75;4.97;;;17.00;64.70;;;;;;5081837;28;20455;-64
2023/06/17 00:53:05;;;;;;;8.10;5.00;;;17.00;64.70;;;;;;5079472;28;20051;-65
2023/06/17 00:55:32;;;;;;;7.53;4.90;;;17.00;64.70;;;;;;5066124;28;20163;-66
2023/06/17 00:58:00;;;;;;;7.45;5.50;;;16.90;64.90;;;;;;5085061;28;20080;-66
2023/06/17 01:00:27;;;;;;;6.75;5.05;;;16.90;65.10;;;;;;5084306;28;22542;-66
2023/06/17 01:02:56;;;;;;;6.10;4.60;;;16.80;65.10;;;;;;5050676;28;20075;-64
2023/06/17 01:05:23;;;;;;;8.63;5.32;;;16.70;65.30;;;;;;5065769;28;20051;-65
2023/06/17 01:08:05;;;;;;;8.10;4.90;;;16.60;65.50;;;;;;5064658;28;20055;-65
2023/06/17 01:10:47;;;;;;;7.97;5.30;;;16.70;65.40;;;;;;5065293;28;20044;-65
2023/06/17 01:13:17;;;;;;;6.85;4.72;;;16.60;65.60;;;;;;5065819;28;20075;-65
2023/06/17 01:15:54;;;;;;;7.25;5.18;;;16.60;65.60;;;;;;5061269;28;20052;-66
2023/06/17 01:18:21;;;;;;;7.18;4.82;;;16.60;65.40;;;;;;5065445;28;20044;-64
2023/06/17 01:20:53;;;;;;;7.50;4.57;;;16.50;65.60;;;;;;5066743;28;20059;-64
2023/06/17 01:23:31;;;;;;;7.75;4.80;;;16.50;65.90;;;;;;5065499;28;20051;-64
2023/06/17 01:26:01;;;;;;;8.57;5.63;;;16.50;65.90;;;;;;5069447;28;20044;-64
2023/06/17 01:28:29;;;;;;;8.15;5.10;;;16.40;66.00;;;;;;5064582;28;20056;-65
2023/06/17 01:30:57;;;;;;;5.90;4.65;;;16.40;66.00;;;;;;5069166;28;20052;-65
2023/06/17 01:33:25;;;;;;;6.88;5.07;;;16.40;66.00;;;;;;5066710;28;20043;-64
2023/06/17 01:35:59;;;;;;;7.38;5.15;;;16.30;66.20;;;;;;5068270;28;20049;-64
2023/06/17 01:38:42;;;;;;;6.47;4.88;;;16.30;66.20;;;;;;5067408;28;20067;-63
2023/06/17 01:41:15;;;;;;;8.80;4.82;;;16.30;66.30;;;;;;5068826;28;20056;-65
2023/06/17 01:43:45;;;;;;;8.05;5.07;;;16.20;66.50;;;;;;5060927;28;20048;-66
2023/06/17 01:46:13;;;;;;;7.03;5.03;;;16.10;66.70;;;;;;5066191;28;20044;-64
2023/06/17 01:48:41;;;;;;;6.57;4.65;;;16.10;66.70;;;;;;5066954;28;20048;-65
2023/06/17 01:51:08;;;;;;;6.85;4.55;;;16.10;66.80;;;;;;5068801;28;20048;-64
2023/06/17 01:53:35;;;;;;;7.70;5.18;;;16.10;66.70;;;;;;5067691;28;20055;-65
2023/06/17 01:56:02;;;;;;;7.80;4.85;;;16.10;66.80;;;;;;5068559;28;20052;-63
2023/06/17 01:58:31;;;;;;;6.32;4.75;;;16.10;66.80;;;;;;5064268;28;20089;-65
2023/06/17 02:00:58;;;;;;;8.02;4.88;;;16.00;67.00;;;;;;5068244;28;20048;-64
2023/06/17 02:03:25;;;;;;;7.65;5.60;;;16.00;67.00;;;;;;5068713;28;20053;-64
2023/06/17 02:05:52;;;;;;;7.78;5.40;;;16.00;67.20;;;;;;5067143;28;20044;-65
2023/06/17 02:08:19;;;;;;;6.32;4.90;;;15.90;67.60;;;;;;5067346;28;20066;-66
2023/06/17 02:10:46;;;;;;;6.65;5.00;;;15.90;68.00;;;;;;5069227;28;20063;-66
2023/06/17 02:13:13;;;;;;;8.05;4.90;;;15.90;68.10;;;;;;5068288;28;20495;-65
2023/06/17 02:15:42;;;;;;;7.78;5.30;;;15.90;68.20;;;;;;5064731;28;20044;-65
2023/06/17 02:18:14;;;;;;;6.95;5.38;;;15.90;68.30;;;;;;5065121;28;20049;-64
2023/06/17 02:20:40;;;;;;;8.10;5.22;;;15.90;68.30;;;;;;5067888;28;20052;-64
2023/06/17 02:23:07;;;;;;;6.55;5.25;;;15.80;68.40;;;;;;5064299;28;20052;-65
2023/06/17 02:25:36;;;;;;;7.40;5.30;;;15.80;68.50;;;;;;5067194;28;20138;-64
2023/06/17 02:28:03;;;;;;;7.78;5.50;;;15.70;68.30;;;;;;5064691;28;20040;-63
2023/06/17 02:30:30;;;;;;;7.35;5.25;;;15.70;68.10;;;;;;5065355;28;20099;-65
2023/06/17 02:32:59;;;;;;;8.57;5.28;;;15.70;68.00;;;;;;5066262;28;20060;-65
2023/06/17 02:35:26;;;;;;;6.70;5.20;;;15.60;68.10;;;;;;5067792;28;20048;-65
2023/06/17 02:37:53;;;;;;;7.22;5.35;;;15.60;68.10;;;;;;5067538;28;20057;-65
2023/06/17 02:40:20;;;;;;;7.72;5.10;;;15.60;68.00;;;;;;5065835;28;20135;-66
2023/06/17 02:42:50;;;;;;;;;;;15.60;67.90;;;;;;5066004;28;20533;-64
2023/06/17 02:45:17;;;;;;;7.35;5.00;;;15.60;67.90;;;;;;5064215;28;19928;-65
2023/06/17 02:47:47;;;;;;;7.40;5.37;;;15.60;67.90;;;;;;5063980;28;21231;-66
2023/06/17 02:50:21;;;;;;;6.72;4.68;;;15.50;67.90;;;;;;5064457;28;20048;-66
2023/06/17 02:52:55;;;;;;;9.60;5.05;;;15.50;68.20;;;;;;5067748;28;20056;-65
2023/06/17 02:55:22;;;;;;;6.80;5.05;;;15.40;68.20;;;;;;5065989;28;20952;-65
2023/06/17 02:57:51;;;;;;;6.32;4.97;;;15.30;68.40;;;;;;5065423;28;20057;-65
2023/06/17 03:00:18;;;;;;;7.03;4.70;;;15.30;68.50;;;;;;5055662;28;20562;-66
2023/06/17 03:02:45;;;;;;;8.13;5.32;;;15.30;68.30;;;;;;5047403;28;20083;-64
2023/06/17 03:05:12;;;;;;;8.90;4.90;;;15.30;68.40;;;;;;5081297;28;20093;-65
2023/06/17 03:07:44;;;;;;;7.28;5.10;;;15.30;68.40;;;;;;5082202;28;20036;-63
2023/06/17 03:10:11;;;;;;;6.80;5.10;;;15.30;68.40;;;;;;5062643;28;20044;-64
2023/06/17 03:12:45;;;;;;;9.40;5.18;;;15.20;68.60;;;;;;5064674;28;20051;-63
2023/06/17 03:15:13;;;;;;;7.65;5.22;;;15.20;68.90;;;;;;5069171;28;20444;-63
2023/06/17 03:17:40;;;;;;;7.13;5.05;;;15.20;69.10;;;;;;5061351;28;20063;-64
2023/06/17 03:20:09;;;;;;;7.47;5.60;;;15.20;69.40;;;;;;5070063;28;20464;-64
2023/06/17 03:22:36;;;;;;;7.07;5.65;;;15.20;69.50;;;;;;5056393;28;21120;-64
2023/06/17 03:25:08;;;;;;;8.88;5.85;;;15.20;69.50;;;;;;5064996;28;20462;-64
2023/06/17 03:27:38;;;;;;;6.68;5.20;;;15.20;69.60;;;;;;5065954;28;20422;-65
2023/06/17 03:30:06;;;;;;;6.82;5.40;;;15.10;69.80;;;;;;5071708;28;20052;-65
2023/06/17 03:32:33;;;;;;;7.65;5.50;;;15.20;69.80;;;;;;5057187;28;20127;-65
2023/06/17 03:35:02;;;;;;;8.55;5.80;;;15.10;69.80;;;;;;5077667;28;20500;-65
2023/06/17 03:37:30;;;;;;;8.23;6.18;;;15.10;69.80;;;;;;5053494;28;20048;-66
2023/06/17 03:39:57;;;;;;;6.88;5.47;;;15.10;69.80;;;;;;5081844;28;20048;-65
2023/06/17 03:42:25;;;;;;;7.85;5.53;;;15.00;69.90;;;;;;5072150;28;20044;-65
2023/06/17 03:44:52;;;;;;;7.65;5.38;;;15.00;69.90;;;;;;5056605;28;20060;-64
2023/06/17 03:47:19;;;;;;;8.00;6.13;;;15.00;69.90;;;;;;5067368;28;20044;-65
2023/06/17 03:49:46;;;;;;;8.05;5.45;;;15.00;69.80;;;;;;5059925;28;20064;-65
2023/06/17 03:52:13;;;;;;;7.38;5.40;;;15.00;69.80;;;;;;5070112;28;20032;-67
2023/06/17 03:54:40;;;;;;;6.25;5.05;;;14.90;69.80;;;;;;5069799;28;20049;-65
2023/06/17 03:57:07;;;;;;;7.57;5.70;;;14.90;70.00;;;;;;5069220;28;20052;-66
2023/06/17 03:59:37;;;;;;;8.20;5.75;;;14.90;70.30;;;;;;5069453;28;20052;-65
2023/06/17 04:02:04;;;;;;;7.97;6.25;;;14.90;70.30;;;;;;5067165;28;20055;-65
2023/06/17 04:04:34;;;;;;;7.35;5.88;;;14.90;70.30;;;;;;5066873;28;20056;-65
2023/06/17 04:07:02;;;;;;;8.60;6.15;;;14.90;70.30;;;;;;5067577;28;20044;-64
2023/06/17 04:09:29;;;;;;;8.00;5.90;;;15.00;70.30;;;;;;5060536;28;20079;-65
2023/06/17 04:11:56;;;;;;;9.73;6.03;;;15.00;70.20;;;;;;5070154;28;20037;-64
2023/06/17 04:14:22;;;;;;;8.45;6.28;;;15.00;70.30;;;;;;5072718;28;20052;-64
2023/06/17 04:16:51;;;;;;;8.65;5.95;;;15.00;70.40;;;;;;5080748;28;20067;-65
2023/06/17 04:19:17;;;;;;;7.68;5.97;;;15.10;70.40;;;;;;5073474;28;20043;-66
2023/06/17 04:21:44;;;;;;;8.32;6.38;;;15.00;70.60;;;;;;5090113;28;20040;-65
2023/06/17 04:24:11;;;;;;;8.30;5.65;;;15.10;70.60;;;;;;5083627;28;20076;-66
2023/06/17 04:26:38;;;;;;;9.13;6.28;;;15.10;70.70;;;;;;5073191;28;20054;-65
2023/06/17 04:29:05;;;;;;;8.45;6.57;;;15.10;70.80;;;;;;5072286;28;20055;-65
2023/06/17 04:31:35;;;;;;;7.45;5.75;;;15.10;70.70;;;;;;5059668;28;20052;-64
2023/06/17 04:34:05;;;;;;;8.45;5.97;;;15.10;70.80;;;;;;5066308;28;20053;-65
2023/06/17 04:36:32;;;;;;;8.18;5.50;;;15.10;70.90;;;;;;5067627;28;20499;-66
2023/06/17 04:38:59;;;;;;;10.00;6.40;;;15.10;71.20;;;;;;5068093;28;20049;-65
2023/06/17 04:41:27;;;;;;;7.03;5.38;;;15.10;71.10;;;;;;5067196;28;20470;-65
2023/06/17 04:43:55;;;;;;;8.30;6.25;;;15.10;71.20;;;;;;5067583;28;20055;-64
2023/06/17 04:46:21;;;;;;;8.35;6.43;;;15.10;71.50;;;;;;5068806;28;20491;-66
2023/06/17 04:48:48;;;;;;;10.63;5.78;;;15.10;71.10;;;;;;5068195;28;20074;-65
2023/06/17 04:51:17;;;;;;;7.75;5.85;;;15.10;71.10;;;;;;5067900;28;20055;-65
2023/06/17 04:53:45;;;;;;;8.38;5.85;;;15.10;71.50;;;;;;5068051;28;20064;-65
2023/06/17 04:56:12;;;;;;;10.98;6.13;;;15.10;71.30;;;;;;5069075;28;20048;-66
2023/06/17 04:58:39;;;;;;;7.75;5.97;;;15.10;71.30;;;;;;5065516;28;20053;-66
2023/06/17 05:01:13;;;;;;;7.88;6.03;;;15.10;71.30;;;;;;5066478;28;20074;-63
2023/06/17 05:03:40;;;;;;;7.88;6.18;;;15.10;71.30;;;;;;5066781;28;20550;-65
2023/06/17 05:06:07;;;;;;;7.85;6.43;;;15.10;71.40;;;;;;5067595;28;20048;-64
2023/06/17 05:08:36;;;;;;;9.52;6.18;;;15.10;71.40;;;;;;5068999;28;20495;-65
2023/06/17 05:11:03;;;;;;;9.20;6.47;;;15.20;71.20;;;;;;5064822;28;20131;-66
2023/06/17 05:13:32;;;;;;;7.80;6.22;;;15.20;71.10;;;;;;5067595;28;20048;-65
2023/06/17 05:16:00;;;;;;;8.20;6.55;;;15.20;71.10;;;;;;5067148;28;20507;-64
2023/06/17 05:18:28;;;;;;;8.70;6.25;;;15.30;71.30;;;;;;5066391;28;20151;-65
2023/06/17 05:20:55;;;;;;;7.50;5.85;;;15.30;71.20;;;;;;5068133;28;20138;-65
2023/06/17 05:23:22;;;;;;;9.50;6.05;;;15.40;70.60;;;;;;5067428;28;20123;-67
2023/06/17 05:25:51;;;;;;;7.15;5.57;;;15.40;70.70;;;;;;5065821;28;20044;-65
2023/06/17 05:28:18;;;;;;;7.68;5.97;;;15.50;70.50;;;;;;5066554;28;20136;-66
2023/06/17 05:30:46;;;;;;;9.02;5.88;;;15.60;70.60;;;;;;5067487;28;20049;-65
2023/06/17 05:33:15;;;;;;;8.07;6.15;;;15.60;70.50;;;;;;5066419;28;20290;-65
2023/06/17 05:35:42;;;;;;;7.95;5.82;;;15.60;70.50;;;;;;5067257;28;20056;-64
2023/06/17 05:38:09;;;;;;;8.45;5.93;;;15.60;70.30;;;;;;5067594;28;20052;-66
2023/06/17 05:40:36;;;;;;;9.00;6.10;;;15.70;70.40;;;;;;5067061;28;20059;-66
2023/06/17 05:43:04;;;;;;;11.15;6.25;;;15.70;70.40;;;;;;5064858;28;20132;-64
2023/06/17 05:45:31;;;;;;;7.50;6.03;;;15.70;70.50;;;;;;5067376;28;20052;-65
2023/06/17 05:47:58;;;;;;;7.75;5.82;;;15.70;70.50;;;;;;5065624;28;20074;-65
2023/06/17 05:50:25;;;;;;;7.90;5.90;;;15.70;70.60;;;;;;5067259;28;20048;-66
2023/06/17 05:52:55;;;;;;;;;;;15.70;70.50;;;;;;5063946;28;20054;-65
2023/06/17 05:55:22;;;;;;;8.43;5.78;;;15.80;70.30;;;;;;5068762;28;19931;-65
2023/06/17 05:57:51;;;;;;;7.07;5.28;;;15.90;70.00;;;;;;5066437;28;20106;-66
2023/06/17 06:00:20;;;;;;;7.53;5.90;;;15.90;70.10;;;;;;5075165;28;20492;-66
2023/06/17 06:02:47;;;;;;;6.85;5.78;;;16.00;69.90;;;;;;5052546;28;20048;-65
2023/06/17 06:05:15;;;;;;;7.13;5.72;;;16.00;69.90;;;;;;5067682;28;20084;-65
2023/06/17 06:07:43;;;;;;;7.28;5.47;;;16.00;70.00;;;;;;5067529;28;20088;-64
2023/06/17 06:10:11;;;;;;;7.47;6.05;;;16.00;69.50;;;;;;5067435;28;20048;-65
2023/06/17 06:12:42;;;;;;;7.75;5.82;;;16.10;69.90;;;;;;5067219;28;20113;-66
2023/06/17 06:15:10;;;;;;;8.60;6.57;;;16.20;69.80;;;;;;5065706;28;20503;-66
2023/06/17 06:17:38;;;;;;;8.27;6.07;;;16.10;69.70;;;;;;5067085;28;20054;-66
2023/06/17 06:20:06;;;;;;;7.55;6.07;;;16.20;69.40;;;;;;5065568;28;20128;-66
2023/06/17 06:22:34;;;;;;;7.03;5.72;;;16.20;69.40;;;;;;5055068;28;20040;-65
2023/06/17 06:25:01;;;;;;;9.90;6.07;;;16.40;69.40;;;;;;5068128;28;20076;-66
2023/06/17 06:27:28;;;;;;;9.93;6.47;;;16.40;69.00;;;;;;5058825;28;20052;-66
2023/06/17 06:29:55;;;;;;;7.80;6.05;;;16.50;68.70;;;;;;5070367;28;20135;-65
2023/06/17 06:32:22;;;;;;;9.60;6.53;;;16.60;69.00;;;;;;5064858;28;20036;-66
2023/06/17 06:34:51;;;;;;;8.18;6.47;;;16.80;69.10;;;;;;5066166;28;20048;-67
2023/06/17 06:37:18;;;;;;;11.55;6.47;;;16.80;68.00;;;;;;5065841;28;20044;-64
2023/06/17 06:39:46;;;;;;;7.78;5.82;;;17.00;68.30;;;;;;5083149;28;20048;-66
2023/06/17 06:42:13;;;;;;;7.80;5.88;;;17.10;67.90;;;;;;5068227;28;20045;-67
2023/06/17 06:44:47;;;;;;;9.02;6.45;;;17.30;68.00;;;;;;5067730;28;20036;-65
2023/06/17 06:47:16;;;;;;;8.70;5.95;;;17.40;67.70;;;;;;5066223;28;20058;-67
2023/06/17 06:49:43;;;;;;;8.55;6.72;;;17.50;67.20;;;;;;5069192;28;20796;-65
2023/06/17 06:52:12;;;;;;;8.68;6.35;;;17.70;67.00;;;;;;5062969;28;20074;-66
2023/06/17 06:54:39;;;;;;;7.88;6.28;;;17.90;66.70;;;;;;5068130;28;20080;-67
2023/06/17 06:57:06;;;;;;;8.57;6.57;;;18.10;66.20;;;;;;5057537;28;20055;-67
2023/06/17 06:59:34;;;;;;;7.63;6.07;;;18.20;65.50;;;;;;5066996;28;20052;-67
2023/06/17 07:02:01;;;;;;;8.40;6.55;;;18.40;65.10;;;;;;5067790;28;20044;-67
2023/06/17 07:04:28;;;;;;;8.27;6.30;;;18.60;64.70;;;;;;5066483;28;20056;-66
2023/06/17 07:06:58;;;;;;;8.45;6.78;;;18.80;64.40;;;;;;5065904;28;20072;-66
2023/06/17 07:09:32;;;;;;;7.20;6.07;;;18.90;63.60;;;;;;5065499;28;20503;-66
2023/06/17 07:11:59;;;;;;;8.95;7.38;;;19.00;63.20;;;;;;5067253;28;20053;-66
2023/06/17 07:14:26;;;;;;;10.88;8.88;;;19.20;62.70;;;;;;5067349;28;20463;-66
2023/06/17 07:16:53;;;;;;;13.43;9.13;;;19.50;62.20;;;;;;5067626;28;20465;-66
2023/06/17 07:19:20;;;;;;;10.32;8.43;;;19.60;61.90;;;;;;5065566;28;20048;-66
2023/06/17 07:21:48;;;;;;;11.23;6.97;;;19.90;61.60;;;;;;5064990;28;20044;-66
2023/06/17 07:24:15;;;;;;;12.15;8.13;;;20.10;60.80;;;;;;5078435;28;20127;-66
2023/06/17 07:26:45;;;;;;;9.77;8.02;;;20.30;60.10;;;;;;5065863;28;20518;-67
2023/06/17 07:29:12;;;;;;;10.98;8.90;;;20.40;59.60;;;;;;5065420;28;20067;-67
2023/06/17 07:31:39;;;;;;;8.98;7.72;;;20.60;59.30;;;;;;5067540;28;20052;-66
2023/06/17 07:34:06;;;;;;;10.18;8.90;;;20.70;59.00;;;;;;5066452;28;20048;-67
2023/06/17 07:36:33;;;;;;;9.15;7.15;;;20.90;58.80;;;;;;5067491;28;20059;-68
2023/06/17 07:39:00;;;;;;;11.38;8.07;;;21.10;58.20;;;;;;5064699;28;20106;-66
2023/06/17 07:41:27;;;;;;;10.63;8.07;;;21.30;57.60;;;;;;5067108;28;20055;-68
2023/06/17 07:43:55;;;;;;;10.18;7.60;;;21.50;57.50;;;;;;5067105;28;20076;-67
2023/06/17 07:46:22;;;;;;;9.75;7.40;;;21.60;57.30;;;;;;5066641;28;20057;-67
2023/06/17 07:48:49;;;;;;;8.15;7.25;;;21.80;56.90;;;;;;5067987;28;20049;-67
2023/06/17 07:51:16;;;;;;;9.80;6.75;;;22.00;56.60;;;;;;5066705;28;20052;-68
2023/06/17 07:53:43;;;;;;;8.90;6.70;;;22.10;56.40;;;;;;5060297;28;20055;-68
2023/06/17 07:56:10;;;;;;;8.48;6.70;;;22.20;55.80;;;;;;5070528;28;20055;-68
2023/06/17 07:58:37;;;;;;;7.50;6.47;;;22.40;55.20;;;;;;5067956;28;20081;-68
2023/06/17 08:01:05;;;;;;;7.90;6.50;;;22.50;55.00;;;;;;5066506;28;20048;-68
2023/06/17 08:03:32;;;;;;;8.48;6.55;;;22.70;54.40;;;;;;5066210;28;20056;-68
2023/06/17 08:05:59;;;;;;;7.63;6.10;;;22.80;54.00;;;;;;5068602;28;20047;-66
2023/06/17 08:08:26;;;;;;;7.85;5.85;;;23.00;53.90;;;;;;5070512;28;20048;-67
2023/06/17 08:10:53;;;;;;;8.27;6.30;;;23.10;53.00;;;;;;5069845;28;20060;-67
2023/06/17 08:13:20;;;;;;;7.82;6.50;;;23.30;52.80;;;;;;5071669;28;20056;-67
2023/06/17 08:15:49;;;;;;;9.40;6.93;;;23.40;52.60;;;;;;5070069;28;20059;-67
2023/06/17 08:18:17;;;;;;;9.10;7.25;;;23.60;51.70;;;;;;5070514;28;20082;-67
2023/06/17 08:20:44;;;;;;;9.02;6.95;;;23.70;51.30;;;;;;5067062;28;20049;-67
2023/06/17 08:23:11;;;;;;;10.02;8.18;;;23.80;50.80;;;;;;5067644;28;20051;-66
2023/06/17 08:25:39;;;;;;;9.52;8.07;;;23.90;51.30;;;;;;5070451;28;20503;-66
2023/06/17 08:28:06;;;;;;;10.32;8.75;;;24.00;50.50;;;;;;5069395;28;20528;-67
2023/06/17 08:30:33;;;;;;;9.77;7.63;;;24.10;51.00;;;;;;5068160;28;20060;-67
2023/06/17 08:33:00;;;;;;;8.70;7.03;;;24.20;50.80;;;;;;5070123;28;20053;-67
2023/06/17 08:35:28;;;;;;;8.50;7.07;;;24.30;50.10;;;;;;5070042;28;20052;-68
2023/06/17 08:37:55;;;;;;;10.93;7.95;;;24.40;50.50;;;;;;5067694;28;20044;-67
2023/06/17 08:40:22;;;;;;;9.85;8.25;;;24.50;50.10;;;;;;5069872;28;20040;-67
2023/06/17 08:42:55;;;;;;;9.15;7.50;;;24.70;50.00;;;;;;5070034;28;20414;-67
2023/06/17 08:45:25;;;;;;;9.48;7.53;;;24.80;49.90;;;;;;5070123;28;20056;-67
2023/06/17 08:47:51;;;;;;;;;;;24.90;49.50;;;;;;5070156;28;20056;-68
2023/06/17 08:50:19;;;;;;;10.82;6.57;;;25.10;49.00;;;;;;5070016;28;19947;-66
2023/06/17 08:52:51;;;;;;;9.15;7.07;;;25.20;48.70;;;;;;5067133;28;20059;-67
2023/06/17 08:55:18;;;;;;;10.93;7.88;;;25.20;48.30;;;;;;5062369;28;20517;-65
2023/06/17 08:57:47;;;;;;;10.50;7.40;;;25.30;47.90;;;;;;5070563;28;20052;-66
2023/06/17 09:00:15;;;;;;;18.02;8.82;;;25.40;47.60;;;;;;5069530;28;20044;-66
2023/06/17 09:02:45;;;;;;;17.13;8.88;;;25.50;47.30;;;;;;5069213;28;20050;-66
2023/06/17 09:05:12;;;;;;;12.63;7.30;;;25.70;46.00;;;;;;5068295;28;20053;-66
2023/06/17 09:07:39;;;;;;;9.45;7.28;;;25.80;43.90;;;;;;5069136;28;20491;-66
2023/06/17 09:10:09;;;;;;;8.88;6.22;;;26.00;43.40;;;;;;5069429;28;20502;-66
2023/06/17 09:12:38;;;;;;;7.22;5.80;;;26.10;41.40;;;;;;5064476;28;20056;-66
2023/06/17 09:15:07;;;;;;;6.68;5.03;;;26.10;38.90;;;;;;5069245;28;20040;-66
2023/06/17 09:17:34;;;;;;;6.38;4.68;;;26.30;39.00;;;;;;5069723;28;20666;-67
2023/06/17 09:20:13;;;;;;;6.57;4.50;;;26.30;39.20;;;;;;5069508;28;20048;-66
2023/06/17 09:22:41;;;;;;;5.80;4.38;;;26.30;38.40;;;;;;5065589;28;20051;-66
2023/06/17 09:25:14;;;;;;;6.07;4.57;;;26.60;37.60;;;;;;5066763;28;20040;-67
2023/06/17 09:27:49;;;;;;;5.85;4.25;;;26.80;35.60;;;;;;5066566;28;20123;-66
2023/06/17 09:30:16;;;;;;;6.65;4.20;;;26.80;35.70;;;;;;5068391;28;20098;-67
2023/06/17 09:32:44;;;;;;;8.23;4.75;;;26.90;36.20;;;;;;5067910;28;20518;-67
2023/06/17 09:35:15;;;;;;;6.15;4.22;;;26.90;35.80;;;;;;5068349;28;20094;-68
2023/06/17 09:37:50;;;;;;;5.57;4.43;;;27.10;35.60;;;;;;5067946;28;20102;-66
2023/06/17 09:40:19;;;;;;;6.30;4.57;;;27.10;35.10;;;;;;5068682;28;20044;-66
2023/06/17 09:42:46;;;;;;;6.13;4.10;;;27.20;35.80;;;;;;5067950;28;20404;-66
2023/06/17 09:45:24;;;;;;;6.97;4.43;;;27.20;36.10;;;;;;5067641;28;20060;-66
2023/06/17 09:47:53;;;;;;;5.47;4.47;;;27.30;34.20;;;;;;5068564;28;20131;-66
2023/06/17 09:50:22;;;;;;;4.65;3.67;;;27.30;34.30;;;;;;5068752;28;20056;-66
2023/06/17 09:52:54;;;;;;;6.55;4.38;;;27.40;35.10;;;;;;5066952;28;20131;-65
2023/06/17 09:55:23;;;;;;;7.50;4.43;;;27.40;35.50;;;;;;5067521;28;20049;-67
2023/06/17 09:57:53;;;;;;;6.93;4.40;;;27.60;34.40;;;;;;5069723;28;20044;-66
2023/06/17 10:00:23;;;;;;;6.78;4.18;;;27.70;34.20;;;;;;5066276;28;20494;-66
2023/06/17 10:02:51;;;;;;;7.18;5.13;;;28.00;33.70;;;;;;5067803;28;20051;-66
2023/06/17 10:05:20;;;;;;;5.97;4.45;;;27.90;33.50;;;;;;5068019;28;20510;-66
2023/06/17 10:07:47;;;;;;;5.05;4.22;;;28.00;34.40;;;;;;5068115;28;20063;-66
2023/06/17 10:10:16;;;;;;;6.53;4.63;;;28.00;33.60;;;;;;5057822;28;20052;-66
2023/06/17 10:12:45;;;;;;;5.90;4.65;;;28.10;33.20;;;;;;5067510;28;20056;-66
2023/06/17 10:15:14;;;;;;;5.65;4.03;;;28.20;33.80;;;;;;5068227;28;20068;-66
2023/06/17 10:17:43;;;;;;;7.30;4.57;;;28.20;33.70;;;;;;5066379;28;20106;-66
2023/06/17 10:20:11;;;;;;;5.80;4.55;;;28.30;32.50;;;;;;5066717;28;20467;-65
2023/06/17 10:22:40;;;;;;;6.65;4.55;;;28.40;33.00;;;;;;5067277;28;20068;-67
2023/06/17 10:25:16;;;;;;;8.55;4.65;;;28.40;33.20;;;;;;5069214;28;20053;-66
2023/06/17 10:27:45;;;;;;;5.78;4.45;;;28.40;33.70;;;;;;5068438;28;20048;-67
2023/06/17 10:30:24;;;;;;;5.50;4.53;;;28.40;33.70;;;;;;5064725;28;20052;-66
2023/06/17 10:32:55;;;;;;;;;;;28.40;34.10;;;;;;5069250;28;20044;-67
2023/06/17 10:35:22;;;;;;;6.43;5.53;;;28.40;34.40;;;;;;5065717;28;19925;-66
2023/06/17 10:37:52;;;;;;;8.52;6.95;;;28.50;34.80;;;;;;5066888;28;20052;-66
2023/06/17 10:40:20;;;;;;;9.10;7.25;;;28.50;34.50;;;;;;5067189;28;20055;-67
2023/06/17 10:42:59;;;;;;;7.35;6.20;;;28.60;34.30;;;;;;5068297;28;20094;-66
2023/06/17 10:45:28;;;;;;;7.45;6.13;;;28.70;33.80;;;;;;5066984;28;20053;-67
2023/06/17 10:48:16;;;;;;;8.82;5.80;;;28.70;33.00;;;;;;5067449;28;20032;-66
2023/06/17 10:50:46;;;;;;;8.27;6.72;;;28.80;33.10;;;;;;5065723;28;20072;-66
2023/06/17 10:53:16;;;;;;;7.65;5.95;;;28.90;33.30;;;;;;5067867;28;20049;-66
2023/06/17 10:55:43;;;;;;;7.78;5.50;;;29.00;32.50;;;;;;5068211;28;20422;-67
2023/06/17 10:58:11;;;;;;;7.47;5.45;;;29.00;32.60;;;;;;5064546;28;20048;-66
2023/06/17 11:00:38;;;;;;;7.47;5.25;;;29.00;33.10;;;;;;5067625;28;20052;-65
2023/06/17 11:03:06;;;;;;;6.68;5.25;;;29.00;32.50;;;;;;5067566;28;20052;-67
2023/06/17 11:05:36;;;;;;;7.93;6.55;;;29.00;31.60;;;;;;5066026;28;20052;-65
2023/06/17 11:08:06;;;;;;;7.35;6.28;;;29.10;32.40;;;;;;5064894;28;20053;-66
2023/06/17 11:10:32;;;;;;;7.20;6.03;;;29.10;32.70;;;;;;5067348;28;20056;-67
2023/06/17 11:12:59;;;;;;;7.55;6.40;;;29.20;32.60;;;;;;5068127;28;20053;-66
2023/06/17 11:15:30;;;;;;;7.22;6.20;;;29.30;32.60;;;;;;5065885;28;20044;-67
2023/06/17 11:18:01;;;;;;;7.53;6.10;;;29.40;31.20;;;;;;5066039;28;20041;-66
2023/06/17 11:20:30;;;;;;;9.00;5.82;;;29.50;31.40;;;;;;5066421;28;20114;-67
2023/06/17 11:22:57;;;;;;;7.15;5.65;;;29.50;31.80;;;;;;5066135;28;20814;-66
2023/06/17 11:25:24;;;;;;;6.78;5.45;;;29.40;31.40;;;;;;5065648;28;20048;-66
2023/06/17 11:27:51;;;;;;;6.35;5.47;;;29.30;31.30;;;;;;5067867;28;20052;-66
2023/06/17 11:30:19;;;;;;;5.80;4.75;;;29.30;30.80;;;;;;5064618;28;20040;-67
2023/06/17 11:32:52;;;;;;;6.85;5.18;;;29.30;31.60;;;;;;5066639;28;20488;-67
2023/06/17 11:35:20;;;;;;;7.35;5.57;;;29.40;32.00;;;;;;5066763;28;20048;-67
2023/06/17 11:37:47;;;;;;;6.43;5.45;;;29.50;32.20;;;;;;5067645;28;20056;-66
2023/06/17 11:40:15;;;;;;;6.40;5.30;;;29.60;31.30;;;;;;5069916;28;20052;-66
2023/06/17 11:42:42;;;;;;;6.97;5.30;;;29.70;30.50;;;;;;5069858;28;20508;-66
2023/06/17 11:45:09;;;;;;;6.75;5.13;;;29.60;31.00;;;;;;5070921;28;20114;-66
2023/06/17 11:47:37;;;;;;;6.53;5.05;;;29.20;31.00;;;;;;5069549;28;20071;-66
2023/06/17 11:50:09;;;;;;;5.70;4.63;;;29.20;31.30;;;;;;5071434;28;20044;-66
2023/06/17 11:52:36;;;;;;;7.88;6.18;;;29.30;30.60;;;;;;5071696;28;20660;-66
2023/06/17 11:55:05;;;;;;;6.88;6.18;;;29.40;31.10;;;;;;5071661;28;20049;-66
2023/06/17 11:57:32;;;;;;;7.07;6.03;;;29.50;31.90;;;;;;5067288;28;20593;-66
2023/06/17 12:00:04;;;;;;;6.97;5.47;;;29.60;31.60;;;;;;5066403;28;20068;-65
2023/06/17 12:02:38;;;;;;;;;;;29.60;32.30;;;;;;5069159;28;20044;-66
2023/06/17 12:05:06;;;;;;;6.28;5.07;;;29.60;31.90;;;;;;5070134;28;19924;-66
2023/06/17 12:07:39;;;;;;;7.15;5.47;;;29.70;32.20;;;;;;5069960;28;20048;-66
2023/06/17 12:10:07;;;;;;;6.15;4.88;;;29.80;31.30;;;;;;5071832;28;20530;-66
2023/06/17 12:12:37;;;;;;;7.32;4.93;;;29.80;31.40;;;;;;5071185;28;20053;-66
2023/06/17 12:15:06;;;;;;;6.60;4.82;;;29.90;31.00;;;;;;5068923;28;20118;-66
2023/06/17 12:17:40;;;;;;;6.38;4.97;;;29.80;31.80;;;;;;5085586;28;20040;-65
2023/06/17 12:20:14;;;;;;;5.25;4.32;;;29.80;30.90;;;;;;5075870;28;20411;-67
2023/06/17 12:22:42;;;;;;;7.03;4.82;;;29.90;30.70;;;;;;5075079;28;20077;-66
2023/06/17 12:25:11;;;;;;;6.10;5.47;;;29.80;31.90;;;;;;5076276;28;20076;-66
2023/06/17 12:27:38;;;;;;;7.10;6.05;;;29.70;30.60;;;;;;5087845;28;20072;-66
2023/06/17 12:30:07;;;;;;;6.03;5.15;;;29.70;30.60;;;;;;5072955;28;20094;-67
2023/06/17 12:32:34;;;;;;;6.13;5.00;;;29.70;32.20;;;;;;5075644;28;20048;-65
2023/06/17 12:35:02;;;;;;;5.43;4.60;;;29.70;33.00;;;;;;5069529;28;20644;-64
2023/06/17 12:37:31;;;;;;;5.32;4.63;;;29.60;32.40;;;;;;5070709;28;20076;-66
2023/06/17 12:40:03;;;;;;;7.72;6.82;;;29.60;31.00;;;;;;5070168;28;20487;-66
2023/06/17 12:42:30;;;;;;;7.93;6.43;;;29.60;29.70;;;;;;5069214;28;20392;-65
2023/06/17 12:44:57;;;;;;;8.00;5.85;;;29.80;29.50;;;;;;5069772;28;20040;-65
2023/06/17 12:47:25;;;;;;;7.20;5.93;;;29.80;30.80;;;;;;5066803;28;20049;-66
2023/06/17 12:49:52;;;;;;;5.78;4.63;;;29.70;31.20;;;;;;5069725;28;20048;-66
2023/06/17 12:52:19;;;;;;;6.93;4.70;;;29.60;31.70;;;;;;5070290;28;20059;-65
2023/06/17 12:54:46;;;;;;;5.88;4.75;;;29.40;30.40;;;;;;5070937;28;20072;-65